KOGB/OGB METAR and TAF weather

Enter ICAO airport designator
Station Type Date Time Source
KOGB METAR 2019/11/18 08:53 UTC NOAA

KOGB 180853Z AUTO 33003KT OVC018 08/04 A2986 RMK AO2 SLP109 T00830044 58004 $


Station Type Date Time Source
KOGB Decoded METAR 2019/11/18 08:53 UTC NOAA

ORANGEBURG MUNICIPAL AIRPORT, SC, United States (KOGB) 33-28N 080-51W 59M
Nov 18, 2019 - 03:53 AM EST / 2019.11.18 0853 UTC
Wind: from the NNW (330 degrees) at 3 MPH (3 KT):0
Sky conditions: overcast
Temperature: 46.9 F (8.3 C)
Dew Point: 39.9 F (4.4 C)
Relative Humidity: 76%
Pressure (altimeter): 29.86 in. Hg (1011 hPa)
Pressure tendency: 0.01 inches (0.4 hPa) lower than three hours ago
ob: KOGB 180853Z AUTO 33003KT OVC018 08/04 A2986 RMK AO2 SLP109 T00830044 58004
cycle: 9

Station Type Date Time Source
KOGB TAF 2019/11/18 09:48 UTC NOAA

TAF
AMD KOGB 180847Z 1809/1906 01006KT P6SM VCSH BKN025 OVC050
TEMPO 1809/1813 5SM -SHRA BR BKN015 OVC030
FM181800 28005KT P6SM BKN050

Example: see airport list